Time;durP1;ratioP1;P1;durP2;ratioP2;P2;SDS_P1;SDS_P2;PMS_P1;PMS_P2;Temp;Humidity;BMP_temperature;BMP_pressure;BME280_temperature;BME280_humidity;BME280_pressure;Samples;Min_cycle;Max_cycle;Signal;HPM_P1;HPM_P2
2022/04/12 00:00:11;;;;;;;12.13;10.18;;;;;;;;;;4991547;28;99752;-78
2022/04/12 00:02:37;;;;;;;12.85;10.45;;;;;;;;;;4990663;28;98331;-78
2022/04/12 00:05:04;;;;;;;14.13;10.13;;;;;;;;;;4991263;28;98985;-77
2022/04/12 00:07:51;;;;;;;13.48;10.98;;;;;;;;;;4990450;28;102461;-77
2022/04/12 00:10:18;;;;;;;13.70;11.55;;;;;;;;;;4991211;28;98509;-78
2022/04/12 00:12:44;;;;;;;12.77;10.00;;;;;;;;;;4992537;28;98718;-77
2022/04/12 00:15:11;;;;;;;19.77;10.60;;;;;;;;;;4997539;28;99542;-78
2022/04/12 00:20:26;;;;;;;17.70;10.20;;;;;;;;;;4994797;28;100265;-78
2022/04/12 00:22:53;;;;;;;11.88;9.65;;;;;;;;;;4995114;28;99242;-77
2022/04/12 00:25:22;;;;;;;11.23;9.65;;;;;;;;;;4995467;28;99618;-78
2022/04/12 00:27:50;;;;;;;11.75;9.55;;;;;;;;;;4995261;28;99903;-79
2022/04/12 00:30:18;;;;;;;11.35;10.15;;;;;;;;;;4995734;28;98398;-78
2022/04/12 00:32:45;;;;;;;20.77;10.68;;;;;;;;;;4994462;28;100351;-77
2022/04/12 00:35:11;;;;;;;12.90;9.90;;;;;;;;;;4994519;28;101140;-78
2022/04/12 00:37:38;;;;;;;12.10;9.77;;;;;;;;;;4999131;28;97693;-80
2022/04/12 00:40:04;;;;;;;13.73;10.05;;;;;;;;;;4995026;28;99921;-79
2022/04/12 00:42:31;;;;;;;12.48;9.27;;;;;;;;;;4995099;28;98353;-79
2022/04/12 00:44:58;;;;;;;15.00;9.80;;;;;;;;;;4994266;28;99369;-78
2022/04/12 00:47:24;;;;;;;11.45;9.63;;;;;;;;;;4994706;28;99269;-79
2022/04/12 00:49:51;;;;;;;11.75;9.93;;;;;;;;;;4995329;28;98431;-78
2022/04/12 00:52:17;;;;;;;13.30;9.57;;;;;;;;;;4995515;28;99496;-78
2022/04/12 00:54:44;;;;;;;12.65;9.82;;;;;;;;;;4994996;28;100023;-78
2022/04/12 00:57:11;;;;;;;13.75;9.93;;;;;;;;;;4995318;28;98403;-78
2022/04/12 00:59:37;;;;;;;11.77;9.60;;;;;;;;;;4998157;28;100228;-78
2022/04/12 01:02:07;;;;;;;13.88;9.80;;;;;;;;;;4995076;28;98160;-80
2022/04/12 01:04:33;;;;;;;13.38;9.80;;;;;;;;;;4992859;28;98541;-77
2022/04/12 01:07:00;;;;;;;10.98;9.40;;;;;;;;;;4994792;28;100104;-80
2022/04/12 01:09:27;;;;;;;13.43;9.32;;;;;;;;;;4994740;28;99017;-79
2022/04/12 01:11:54;;;;;;;12.60;10.02;;;;;;;;;;4994783;28;101020;-78
2022/04/12 01:14:21;;;;;;;11.93;9.68;;;;;;;;;;4994027;28;99212;-81
2022/04/12 01:16:48;;;;;;;12.35;10.35;;;;;;;;;;4994482;28;98501;-77
2022/04/12 01:19:14;;;;;;;14.18;9.52;;;;;;;;;;4997083;28;99741;-79
2022/04/12 01:21:45;;;;;;;10.55;9.45;;;;;;;;;;4993507;28;98390;-78
2022/04/12 01:24:12;;;;;;;11.20;9.98;;;;;;;;;;4994827;28;99823;-78
2022/04/12 01:26:39;;;;;;;12.15;9.65;;;;;;;;;;4992870;28;98365;-78
2022/04/12 01:29:05;;;;;;;11.82;10.23;;;;;;;;;;4994323;28;98477;-78
2022/04/12 01:31:31;;;;;;;12.57;10.00;;;;;;;;;;4993897;28;99485;-77
2022/04/12 01:33:58;;;;;;;11.35;9.95;;;;;;;;;;4993288;28;100507;-77
2022/04/12 01:36:24;;;;;;;15.65;10.05;;;;;;;;;;4994547;28;98430;-78
2022/04/12 01:38:51;;;;;;;10.90;9.25;;;;;;;;;;4993799;28;99119;-78
2022/04/12 01:41:17;;;;;;;12.00;10.18;;;;;;;;;;4997758;28;99203;-77
2022/04/12 01:43:43;;;;;;;13.02;9.35;;;;;;;;;;4993433;28;99568;-79
2022/04/12 01:46:10;;;;;;;11.20;9.85;;;;;;;;;;4992706;28;101294;-78
2022/04/12 01:48:36;;;;;;;14.20;10.05;;;;;;;;;;4994556;28;98364;-77
2022/04/12 01:51:02;;;;;;;11.52;10.27;;;;;;;;;;4994078;28;99339;-77
2022/04/12 01:53:29;;;;;;;13.20;9.38;;;;;;;;;;4993491;28;99621;-79
2022/04/12 01:55:55;;;;;;;15.77;10.30;;;;;;;;;;4994239;28;98428;-78
2022/04/12 01:58:21;;;;;;;12.65;10.35;;;;;;;;;;4992766;28;99171;-78
2022/04/12 02:00:48;;;;;;;12.68;10.43;;;;;;;;;;4993410;28;99895;-78
2022/04/12 02:03:14;;;;;;;13.30;9.95;;;;;;;;;;4996907;28;98325;-80
2022/04/12 02:05:41;;;;;;;11.82;9.82;;;;;;;;;;4993943;28;98934;-78
2022/04/12 02:08:08;;;;;;;13.77;10.35;;;;;;;;;;4993178;28;98464;-79
2022/04/12 02:10:34;;;;;;;13.55;10.85;;;;;;;;;;4993103;28;100467;-76
2022/04/12 02:13:01;;;;;;;10.82;9.40;;;;;;;;;;4992668;28;99838;-78
2022/04/12 02:15:27;;;;;;;12.32;9.82;;;;;;;;;;4994813;28;97772;-77
2022/04/12 02:17:54;;;;;;;12.45;9.52;;;;;;;;;;4994197;28;98971;-77
2022/04/12 02:20:20;;;;;;;13.65;10.15;;;;;;;;;;4993434;28;101620;-78
2022/04/12 02:22:46;;;;;;;15.38;10.55;;;;;;;;;;4992144;28;99107;-79
2022/04/12 02:25:13;;;;;;;11.38;10.25;;;;;;;;;;4994832;28;101173;-77
2022/04/12 02:27:39;;;;;;;13.73;10.82;;;;;;;;;;4993287;28;98575;-76
2022/04/12 02:30:06;;;;;;;14.20;11.07;;;;;;;;;;4993176;28;99888;-78
2022/04/12 02:32:32;;;;;;;15.70;10.57;;;;;;;;;;4992490;28;99845;-78
2022/04/12 02:35:00;;;;;;;13.48;9.48;;;;;;;;;;4993258;28;98419;-78
2022/04/12 02:37:27;;;;;;;15.25;10.93;;;;;;;;;;4993252;28;99530;-77
2022/04/12 02:39:53;;;;;;;12.07;9.75;;;;;;;;;;4993213;28;99080;-78
2022/04/12 02:42:20;;;;;;;11.73;10.52;;;;;;;;;;4993798;28;99024;-79
2022/04/12 02:44:46;;;;;;;13.07;10.25;;;;;;;;;;4992825;28;99109;-78
2022/04/12 02:47:12;;;;;;;11.77;10.00;;;;;;;;;;4995018;28;100547;-77
2022/04/12 02:49:38;;;;;;;11.63;10.43;;;;;;;;;;4988535;28;103476;-78
2022/04/12 02:52:05;;;;;;;15.38;10.38;;;;;;;;;;4990139;28;99655;-80
2022/04/12 02:54:31;;;;;;;13.48;10.82;;;;;;;;;;4992131;28;99092;-78
2022/04/12 02:56:58;;;;;;;12.35;11.02;;;;;;;;;;4992799;28;99578;-77
2022/04/12 02:59:24;;;;;;;14.20;11.10;;;;;;;;;;4991087;28;103225;-77
2022/04/12 03:01:51;;;;;;;14.75;10.55;;;;;;;;;;4992191;28;98462;-78
2022/04/12 03:04:17;;;;;;;12.98;11.05;;;;;;;;;;4993171;28;99983;-78
2022/04/12 03:06:43;;;;;;;17.35;10.45;;;;;;;;;;4990757;28;99693;-78
2022/04/12 03:09:10;;;;;;;12.73;10.20;;;;;;;;;;4995593;28;98334;-78
2022/04/12 03:11:38;;;;;;;14.55;10.55;;;;;;;;;;4991767;28;100017;-77
2022/04/12 03:14:05;;;;;;;15.63;11.15;;;;;;;;;;4992582;28;98240;-77
2022/04/12 03:16:31;;;;;;;14.07;10.90;;;;;;;;;;4992449;28;99706;-77
2022/04/12 03:18:57;;;;;;;12.60;10.95;;;;;;;;;;4991967;28;99615;-77
2022/04/12 03:21:24;;;;;;;14.95;10.70;;;;;;;;;;4992107;28;98498;-78
2022/04/12 03:23:50;;;;;;;15.23;11.15;;;;;;;;;;4991496;28;99498;-77
2022/04/12 03:26:16;;;;;;;13.05;10.80;;;;;;;;;;4992149;28;99790;-77
2022/04/12 03:28:43;;;;;;;14.85;11.23;;;;;;;;;;4996003;28;97750;-77
2022/04/12 03:31:09;;;;;;;15.10;10.38;;;;;;;;;;4991780;28;99755;-77
2022/04/12 03:33:36;;;;;;;14.05;10.23;;;;;;;;;;4992190;28;98356;-77
2022/04/12 03:36:02;;;;;;;13.98;10.73;;;;;;;;;;4991400;28;99527;-77
2022/04/12 03:38:29;;;;;;;14.40;11.00;;;;;;;;;;4992015;28;99954;-79
2022/04/12 03:40:58;;;;;;;15.90;11.40;;;;;;;;;;4992194;28;98437;-78
2022/04/12 03:43:25;;;;;;;12.57;10.57;;;;;;;;;;4992048;28;99245;-78
2022/04/12 03:45:51;;;;;;;14.77;11.45;;;;;;;;;;4990602;28;102523;-77
2022/04/12 03:48:18;;;;;;;14.00;11.32;;;;;;;;;;4991918;28;98412;-78
2022/04/12 03:50:44;;;;;;;18.65;11.32;;;;;;;;;;4996790;28;99490;-77
2022/04/12 03:53:10;;;;;;;22.45;11.23;;;;;;;;;;4996164;28;97914;-79
2022/04/12 03:55:39;;;;;;;13.10;11.50;;;;;;;;;;4995517;28;98938;-77
2022/04/12 03:58:07;;;;;;;14.70;11.30;;;;;;;;;;4995120;28;99706;-77
2022/04/12 04:00:34;;;;;;;12.48;10.88;;;;;;;;;;4994000;28;100570;-80
2022/04/12 04:03:01;;;;;;;13.35;11.13;;;;;;;;;;4995254;28;98645;-79
2022/04/12 04:05:27;;;;;;;14.38;11.00;;;;;;;;;;4995179;28;100022;-77
2022/04/12 04:07:54;;;;;;;14.88;11.57;;;;;;;;;;4994854;28;98446;-76
2022/04/12 04:10:20;;;;;;;15.57;11.30;;;;;;;;;;4995237;28;99457;-77
2022/04/12 04:12:47;;;;;;;15.70;11.43;;;;;;;;;;4998173;28;100022;-78
2022/04/12 04:15:14;;;;;;;13.25;11.07;;;;;;;;;;4995303;28;99429;-77
2022/04/12 04:17:45;;;;;;;12.75;10.75;;;;;;;;;;4994960;28;99218;-79
2022/04/12 04:20:12;;;;;;;15.77;11.27;;;;;;;;;;4995062;28;98324;-77
2022/04/12 04:22:40;;;;;;;14.85;11.00;;;;;;;;;;4995122;28;99531;-78
2022/04/12 04:25:11;;;;;;;15.63;11.30;;;;;;;;;;4993988;28;101857;-78
2022/04/12 04:27:41;;;;;;;11.85;10.65;;;;;;;;;;4995135;28;98417;-79
2022/04/12 04:30:10;;;;;;;17.75;11.27;;;;;;;;;;4993504;28;99783;-78
2022/04/12 04:32:37;;;;;;;14.45;10.35;;;;;;;;;;4972690;28;99281;-78
2022/04/12 04:35:04;;;;;;;14.85;11.23;;;;;;;;;;4960847;28;98555;-77
2022/04/12 04:37:30;;;;;;;13.30;11.10;;;;;;;;;;4973919;28;100272;-79
2022/04/12 04:39:56;;;;;;;12.52;10.70;;;;;;;;;;4974065;28;98549;-78
2022/04/12 04:42:23;;;;;;;14.85;10.60;;;;;;;;;;4974166;28;99631;-79
2022/04/12 04:44:50;;;;;;;13.23;11.00;;;;;;;;;;4972833;28;99888;-77
2022/04/12 04:47:16;;;;;;;13.98;12.02;;;;;;;;;;4973977;28;98445;-77
2022/04/12 04:49:42;;;;;;;16.50;11.27;;;;;;;;;;4956113;28;100623;-79
2022/04/12 04:52:09;;;;;;;13.45;11.52;;;;;;;;;;4972509;28;100662;-77
2022/04/12 04:54:35;;;;;;;14.20;11.60;;;;;;;;;;4973118;28;98514;-77
2022/04/12 04:57:01;;;;;;;15.77;11.20;;;;;;;;;;4975674;28;99477;-78
2022/04/12 04:59:28;;;;;;;18.45;10.65;;;;;;;;;;4971604;28;98640;-76
2022/04/12 05:01:54;;;;;;;11.23;9.82;;;;;;;;;;4970208;28;99669;-77
2022/04/12 05:04:20;;;;;;;15.30;10.70;;;;;;;;;;4990266;28;99398;-78
2022/04/12 05:06:47;;;;;;;12.23;9.98;;;;;;;;;;4994764;28;97764;-77
2022/04/12 05:09:13;;;;;;;17.35;10.27;;;;;;;;;;4994330;28;98749;-77
2022/04/12 05:11:39;;;;;;;14.82;10.13;;;;;;;;;;4993862;28;100031;-78
2022/04/12 05:14:06;;;;;;;14.93;9.57;;;;;;;;;;4993543;28;99192;-78
2022/04/12 05:16:32;;;;;;;15.60;10.15;;;;;;;;;;4998034;28;100075;-78
2022/04/12 05:18:59;;;;;;;12.23;10.23;;;;;;;;;;4994391;28;98286;-77
2022/04/12 05:21:25;;;;;;;11.85;10.50;;;;;;;;;;4994014;28;99004;-77
2022/04/12 05:23:51;;;;;;;10.73;9.63;;;;;;;;;;4993946;28;99569;-77
2022/04/12 05:26:18;;;;;;;18.75;10.68;;;;;;;;;;4993965;28;98448;-80
2022/04/12 05:28:44;;;;;;;15.02;10.30;;;;;;;;;;4992809;28;103250;-78
2022/04/12 05:31:10;;;;;;;18.10;9.85;;;;;;;;;;4994172;28;98621;-78
2022/04/12 05:33:38;;;;;;;18.45;11.68;;;;;;;;;;4994692;28;98487;-78
2022/04/12 05:36:04;;;;;;;16.55;13.48;;;;;;;;;;4993723;28;98823;-77
2022/04/12 05:38:30;;;;;;;17.25;12.15;;;;;;;;;;4996415;28;100311;-79
2022/04/12 05:40:57;;;;;;;18.42;11.82;;;;;;;;;;4993309;28;99498;-76
2022/04/12 05:43:23;;;;;;;13.38;11.93;;;;;;;;;;4993280;28;99610;-78
2022/04/12 05:45:49;;;;;;;13.70;10.48;;;;;;;;;;4993853;28;98413;-77
2022/04/12 05:48:16;;;;;;;13.98;10.15;;;;;;;;;;4993832;28;99456;-78
2022/04/12 05:50:42;;;;;;;15.23;10.82;;;;;;;;;;4993284;28;99665;-79
2022/04/12 05:53:09;;;;;;;12.15;9.60;;;;;;;;;;4993751;28;98370;-77
2022/04/12 05:55:35;;;;;;;10.27;9.13;;;;;;;;;;4976727;28;102308;-78
2022/04/12 05:58:03;;;;;;;17.23;10.05;;;;;;;;;;4992718;28;99224;-79
2022/04/12 06:00:30;;;;;;;13.85;9.80;;;;;;;;;;4996162;28;98399;-79
2022/04/12 06:02:57;;;;;;;16.50;10.30;;;;;;;;;;4993284;28;100487;-77
2022/04/12 06:05:26;;;;;;;10.82;9.57;;;;;;;;;;4992336;28;98494;-80
2022/04/12 06:07:52;;;;;;;15.73;10.75;;;;;;;;;;4994218;28;100064;-76
2022/04/12 06:10:19;;;;;;;15.43;9.77;;;;;;;;;;4992593;28;99650;-77
2022/04/12 06:12:46;;;;;;;14.52;10.05;;;;;;;;;;4993424;28;99794;-79
2022/04/12 06:15:14;;;;;;;10.55;9.30;;;;;;;;;;4993992;28;99539;-77
2022/04/12 06:17:40;;;;;;;14.57;8.68;;;;;;;;;;4993928;28;99283;-77
2022/04/12 06:20:11;;;;;;;15.82;10.38;;;;;;;;;;4994516;28;97725;-77
2022/04/12 06:22:38;;;;;;;10.30;9.20;;;;;;;;;;4996036;28;98767;-78
2022/04/12 06:25:05;;;;;;;15.55;8.63;;;;;;;;;;4993686;28;98419;-77
2022/04/12 06:27:32;;;;;;;14.05;9.73;;;;;;;;;;4993520;28;99803;-78
2022/04/12 06:30:03;;;;;;;13.30;8.65;;;;;;;;;;4993203;28;100481;-78
2022/04/12 06:32:46;;;;;;;10.00;8.95;;;;;;;;;;4993644;28;98306;-79
2022/04/12 06:35:13;;;;;;;10.40;8.38;;;;;;;;;;4993774;28;98879;-77
2022/04/12 06:37:41;;;;;;;13.07;9.15;;;;;;;;;;4993711;28;100012;-79
2022/04/12 06:40:10;;;;;;;12.27;8.48;;;;;;;;;;4993582;28;98409;-78
2022/04/12 06:42:37;;;;;;;13.52;8.23;;;;;;;;;;4993749;28;99557;-78
2022/04/12 06:45:05;;;;;;;17.10;9.20;;;;;;;;;;4995657;28;101870;-76
2022/04/12 06:47:35;;;;;;;10.23;9.00;;;;;;;;;;4993619;28;98547;-74
2022/04/12 06:50:02;;;;;;;12.50;8.90;;;;;;;;;;4992672;28;99678;-75
2022/04/12 06:52:28;;;;;;;11.75;9.13;;;;;;;;;;4992861;28;100392;-76
2022/04/12 06:54:55;;;;;;;14.43;8.50;;;;;;;;;;4993370;28;100750;-75
2022/04/12 06:57:21;;;;;;;10.00;8.65;;;;;;;;;;4992980;28;99394;-76
2022/04/12 06:59:47;;;;;;;14.32;9.05;;;;;;;;;;4993313;28;98372;-75
2022/04/12 07:02:14;;;;;;;12.13;8.07;;;;;;;;;;4993393;28;99597;-76
2022/04/12 07:04:40;;;;;;;10.35;8.75;;;;;;;;;;4992513;28;99794;-76
2022/04/12 07:07:07;;;;;;;9.88;8.52;;;;;;;;;;4996134;28;98393;-76
2022/04/12 07:09:33;;;;;;;17.00;8.88;;;;;;;;;;4993351;28;98310;-75
2022/04/12 07:12:00;;;;;;;12.30;9.15;;;;;;;;;;4993176;28;98592;-77
2022/04/12 07:14:28;;;;;;;12.85;8.27;;;;;;;;;;4993063;28;99845;-77
2022/04/12 07:16:55;;;;;;;10.80;8.90;;;;;;;;;;4991964;28;100582;-77
2022/04/12 07:19:22;;;;;;;11.98;9.52;;;;;;;;;;4993075;28;98378;-76
2022/04/12 07:21:48;;;;;;;11.45;8.43;;;;;;;;;;4992713;28;100872;-75
2022/04/12 07:24:14;;;;;;;12.73;9.20;;;;;;;;;;4992619;28;99837;-80
2022/04/12 07:30:10;;;;;;;15.73;9.10;;;;;;;;;;4992857;28;99125;-80
2022/04/12 07:32:49;;;;;;;11.38;9.00;;;;;;;;;;4991746;28;98420;-78
2022/04/12 07:35:15;;;;;;;11.55;8.65;;;;;;;;;;4992462;28;101452;-79
2022/04/12 07:37:42;;;;;;;11.98;8.48;;;;;;;;;;4991467;28;100343;-80
2022/04/12 07:40:09;;;;;;;11.00;8.32;;;;;;;;;;4992819;28;98492;-80
2022/04/12 07:42:37;;;;;;;11.25;8.18;;;;;;;;;;4992080;28;100740;-79
2022/04/12 07:45:10;;;;;;;13.85;8.80;;;;;;;;;;4989943;28;99288;-80
2022/04/12 07:47:37;;;;;;;10.50;8.60;;;;;;;;;;4957744;28;98505;-80
2022/04/12 07:50:06;;;;;;;10.38;8.15;;;;;;;;;;4987393;28;101674;-77
2022/04/12 07:52:32;;;;;;;9.88;8.85;;;;;;;;;;4988757;28;98399;-77
2022/04/12 07:54:58;;;;;;;9.82;8.05;;;;;;;;;;4991693;28;98900;-76
2022/04/12 07:57:26;;;;;;;11.02;8.25;;;;;;;;;;4991032;28;100764;-76
2022/04/12 07:59:53;;;;;;;10.90;7.90;;;;;;;;;;4991393;28;97657;-77
2022/04/12 08:02:19;;;;;;;11.25;8.27;;;;;;;;;;4993040;28;98695;-74
2022/04/12 08:04:46;;;;;;;8.98;8.05;;;;;;;;;;4991876;28;99146;-77
2022/04/12 08:07:13;;;;;;;10.95;8.48;;;;;;;;;;4990745;28;99202;-79
2022/04/12 08:09:39;;;;;;;9.88;8.45;;;;;;;;;;4991944;28;100229;-74
2022/04/12 08:12:06;;;;;;;10.70;8.23;;;;;;;;;;4994866;28;98724;-75
2022/04/12 08:14:32;;;;;;;9.82;8.60;;;;;;;;;;4991771;28;99504;-71
2022/04/12 08:16:59;;;;;;;11.65;8.48;;;;;;;;;;4990820;28;99817;-73
2022/04/12 08:19:25;;;;;;;9.15;8.20;;;;;;;;;;4991990;28;98487;-75
2022/04/12 08:21:51;;;;;;;9.55;8.55;;;;;;;;;;4991566;28;98456;-71
2022/04/12 08:24:18;;;;;;;11.52;8.88;;;;;;;;;;4991889;28;98430;-71
2022/04/12 08:26:44;;;;;;;12.55;8.77;;;;;;;;;;4991307;28;99512;-72
2022/04/12 08:29:10;;;;;;;9.50;8.63;;;;;;;;;;4991288;28;100371;-76
2022/04/12 08:31:37;;;;;;;9.88;8.38;;;;;;;;;;4990433;28;100427;-77
2022/04/12 08:34:03;;;;;;;8.95;7.97;;;;;;;;;;4989890;28;98467;-74
2022/04/12 08:36:30;;;;;;;8.85;7.97;;;;;;;;;;4995657;28;99524;-76
2022/04/12 08:38:56;;;;;;;9.45;7.60;;;;;;;;;;4994096;28;98566;-74
2022/04/12 08:41:23;;;;;;;8.88;7.70;;;;;;;;;;4994865;28;98814;-75
2022/04/12 08:43:57;;;;;;;14.02;8.00;;;;;;;;;;4994207;28;100765;-73
2022/04/12 08:46:27;;;;;;;10.40;8.02;;;;;;;;;;4994940;28;98419;-74
2022/04/12 08:48:56;;;;;;;11.60;7.78;;;;;;;;;;4994278;28;99369;-74
2022/04/12 08:51:22;;;;;;;10.02;8.20;;;;;;;;;;4994165;28;99919;-74
2022/04/12 08:53:49;;;;;;;8.90;7.97;;;;;;;;;;4994358;28;98455;-76
2022/04/12 08:56:15;;;;;;;11.68;8.32;;;;;;;;;;4996947;28;99127;-75
2022/04/12 08:58:41;;;;;;;34.53;28.33;;;;;;;;;;4994231;28;98399;-74
2022/04/12 09:01:28;;;;;;;11.98;8.38;;;;;;;;;;4993087;28;99313;-75
2022/04/12 09:03:54;;;;;;;10.65;8.20;;;;;;;;;;4993456;28;99693;-74
2022/04/12 09:06:21;;;;;;;8.77;7.72;;;;;;;;;;4988924;28;98503;-74
2022/04/12 09:08:47;;;;;;;9.52;8.32;;;;;;;;;;4993776;28;99460;-75
2022/04/12 09:11:15;;;;;;;14.38;7.30;;;;;;;;;;4993815;28;100306;-74
2022/04/12 09:13:56;;;;;;;12.52;7.72;;;;;;;;;;4994824;28;97756;-75
2022/04/12 09:16:23;;;;;;;13.13;8.52;;;;;;;;;;4992340;28;98770;-75
2022/04/12 09:18:49;;;;;;;12.50;7.60;;;;;;;;;;4996794;28;99824;-75
2022/04/12 09:21:17;;;;;;;16.15;7.93;;;;;;;;;;4993609;28;100398;-74
2022/04/12 09:23:53;;;;;;;8.55;7.75;;;;;;;;;;4993866;28;100179;-75
2022/04/12 09:26:27;;;;;;;9.73;7.80;;;;;;;;;;4989580;28;99068;-76
2022/04/12 09:28:57;;;;;;;11.48;7.80;;;;;;;;;;4993493;28;99347;-76
2022/04/12 09:31:24;;;;;;;9.73;7.63;;;;;;;;;;4993649;28;99808;-76
2022/04/12 09:33:51;;;;;;;12.95;8.00;;;;;;;;;;4994351;28;98465;-76
2022/04/12 09:36:18;;;;;;;10.25;8.18;;;;;;;;;;4990077;28;99662;-76
2022/04/12 09:38:45;;;;;;;9.27;8.35;;;;;;;;;;4996965;28;98927;-75
2022/04/12 09:41:11;;;;;;;9.30;8.20;;;;;;;;;;4993674;28;99211;-75
2022/04/12 09:43:51;;;;;;;9.38;8.52;;;;;;;;;;4993400;28;100589;-77
2022/04/12 09:46:18;;;;;;;8.70;7.68;;;;;;;;;;4992508;28;99247;-76
2022/04/12 09:48:46;;;;;;;13.13;8.63;;;;;;;;;;4992785;28;100891;-76
2022/04/12 09:51:13;;;;;;;11.15;8.10;;;;;;;;;;4992980;28;100568;-76
2022/04/12 09:53:40;;;;;;;10.50;7.72;;;;;;;;;;4993544;28;98455;-77
2022/04/12 09:56:19;;;;;;;9.07;7.82;;;;;;;;;;4993652;28;99202;-76
2022/04/12 09:58:47;;;;;;;13.32;8.18;;;;;;;;;;4992999;28;99377;-76
2022/04/12 10:01:15;;;;;;;10.32;7.55;;;;;;;;;;4997196;28;98427;-76
2022/04/12 10:03:46;;;;;;;13.82;8.55;;;;;;;;;;4989950;28;98833;-76
2022/04/12 10:06:14;;;;;;;11.13;8.73;;;;;;;;;;4993327;28;98709;-73
2022/04/12 10:08:41;;;;;;;9.20;8.00;;;;;;;;;;4992674;28;99387;-73
2022/04/12 10:11:12;;;;;;;8.75;7.88;;;;;;;;;;4992655;28;100627;-74
2022/04/12 10:13:39;;;;;;;9.40;7.53;;;;;;;;;;4993662;28;98346;-75
2022/04/12 10:16:06;;;;;;;11.60;7.60;;;;;;;;;;4993685;28;99231;-75
2022/04/12 10:18:33;;;;;;;13.60;7.68;;;;;;;;;;4988885;28;99509;-74
2022/04/12 10:20:59;;;;;;;13.07;8.30;;;;;;;;;;4993333;28;98494;-74
2022/04/12 10:23:26;;;;;;;8.85;7.93;;;;;;;;;;4996209;28;99540;-74
2022/04/12 10:25:54;;;;;;;12.30;7.72;;;;;;;;;;4993429;28;99282;-74
2022/04/12 10:28:22;;;;;;;10.20;7.55;;;;;;;;;;4983929;28;99465;-75
2022/04/12 10:30:49;;;;;;;9.05;7.90;;;;;;;;;;4992787;28;99555;-76
2022/04/12 10:33:15;;;;;;;11.75;8.35;;;;;;;;;;4992430;28;98442;-77
2022/04/12 10:35:41;;;;;;;13.50;8.43;;;;;;;;;;4988717;28;100389;-74
2022/04/12 10:38:11;;;;;;;10.68;7.97;;;;;;;;;;4986896;28;99750;-75
2022/04/12 10:41:00;;;;;;;13.20;7.80;;;;;;;;;;4991741;28;98478;-76
2022/04/12 10:43:34;;;;;;;14.30;8.15;;;;;;;;;;4994582;28;99460;-77
2022/04/12 10:46:01;;;;;;;8.10;7.30;;;;;;;;;;4993130;28;100562;-75
2022/04/12 10:48:29;;;;;;;8.90;8.00;;;;;;;;;;4992283;28;100352;-74
2022/04/12 10:50:56;;;;;;;16.17;8.32;;;;;;;;;;4992043;28;99589;-76
2022/04/12 10:53:52;;;;;;;10.52;7.93;;;;;;;;;;4992235;28;97889;-77
2022/04/12 10:56:22;;;;;;;9.25;7.70;;;;;;;;;;4989278;28;98866;-76
2022/04/12 10:58:49;;;;;;;10.02;7.78;;;;;;;;;;4989686;28;99763;-75
2022/04/12 11:01:32;;;;;;;9.55;7.28;;;;;;;;;;4988522;28;99202;-75
2022/04/12 11:04:05;;;;;;;7.78;6.90;;;;;;;;;;4990345;28;101766;-75
2022/04/12 11:06:32;;;;;;;8.05;6.85;;;;;;;;;;4990644;28;100402;-75
2022/04/12 11:09:08;;;;;;;12.05;6.60;;;;;;;;;;4995783;28;98508;-75
2022/04/12 11:11:42;;;;;;;13.35;6.50;;;;;;;;;;4986708;28;102852;-75
2022/04/12 11:14:27;;;;;;;11.95;6.68;;;;;;;;;;4991872;28;99090;-75
2022/04/12 11:16:54;;;;;;;8.35;6.70;;;;;;;;;;4988558;28;99082;-75
2022/04/12 11:19:22;;;;;;;7.03;6.32;;;;;;;;;;4987376;28;100300;-75
2022/04/12 11:21:57;;;;;;;10.50;7.00;;;;;;;;;;4989340;28;98364;-76
2022/04/12 11:24:24;;;;;;;9.23;6.82;;;;;;;;;;4993016;28;99337;-75
2022/04/12 11:27:00;;;;;;;10.57;6.65;;;;;;;;;;4992144;28;100326;-75
2022/04/12 11:29:27;;;;;;;7.43;6.72;;;;;;;;;;4992696;28;98401;-75
2022/04/12 11:31:54;;;;;;;11.48;6.93;;;;;;;;;;4995722;28;99732;-75
2022/04/12 11:34:22;;;;;;;13.15;7.07;;;;;;;;;;4993066;28;99372;-76
2022/04/12 11:36:54;;;;;;;11.65;7.18;;;;;;;;;;4993049;28;99767;-75
2022/04/12 11:39:24;;;;;;;7.05;6.07;;;;;;;;;;4992378;28;99705;-76
2022/04/12 11:41:58;;;;;;;8.55;6.57;;;;;;;;;;4992216;28;98435;-75
2022/04/12 11:44:24;;;;;;;11.00;6.07;;;;;;;;;;4993090;28;99222;-76
2022/04/12 11:47:01;;;;;;;8.15;5.78;;;;;;;;;;4992543;28;99826;-76
2022/04/12 11:49:32;;;;;;;11.88;6.10;;;;;;;;;;4992104;28;98505;-76
2022/04/12 11:52:00;;;;;;;7.60;5.78;;;;;;;;;;4995319;28;99683;-76
2022/04/12 11:54:27;;;;;;;6.00;5.50;;;;;;;;;;4992456;28;98403;-76
2022/04/12 11:57:03;;;;;;;7.05;5.53;;;;;;;;;;4992712;28;99442;-75
2022/04/12 11:59:30;;;;;;;7.57;5.38;;;;;;;;;;4992275;28;100090;-76
2022/04/12 12:02:02;;;;;;;12.60;5.80;;;;;;;;;;4992503;28;99387;-76
2022/04/12 12:04:31;;;;;;;6.43;5.45;;;;;;;;;;4992704;28;99732;-77
2022/04/12 12:06:59;;;;;;;11.30;6.18;;;;;;;;;;4992013;28;99228;-75
2022/04/12 12:09:26;;;;;;;9.73;5.43;;;;;;;;;;4992891;28;98069;-75
2022/04/12 12:11:56;;;;;;;16.35;6.00;;;;;;;;;;4995676;28;99677;-76
2022/04/12 12:14:22;;;;;;;12.35;6.57;;;;;;;;;;4998975;28;99999;-76
2022/04/12 12:16:58;;;;;;;13.77;6.10;;;;;;;;;;4995567;28;99294;-75
2022/04/12 12:19:25;;;;;;;6.70;6.00;;;;;;;;;;4995164;28;99632;-76
2022/04/12 12:21:52;;;;;;;10.98;6.50;;;;;;;;;;4995708;28;98444;-76
2022/04/12 12:24:18;;;;;;;11.52;6.35;;;;;;;;;;4995704;28;100422;-78
2022/04/12 12:26:44;;;;;;;8.98;6.60;;;;;;;;;;4995557;28;99850;-75
2022/04/12 12:29:11;;;;;;;7.38;6.32;;;;;;;;;;4995971;28;98323;-74
2022/04/12 12:31:42;;;;;;;19.48;6.32;;;;;;;;;;4995474;28;100707;-74
2022/04/12 12:34:08;;;;;;;15.03;6.13;;;;;;;;;;4977768;28;102110;-77
2022/04/12 12:36:35;;;;;;;8.50;6.00;;;;;;;;;;4998974;28;98371;-76
2022/04/12 12:39:05;;;;;;;8.35;5.90;;;;;;;;;;4995243;28;99776;-76
2022/04/12 12:41:32;;;;;;;8.57;6.30;;;;;;;;;;4995030;28;99152;-76
2022/04/12 12:44:00;;;;;;;12.02;6.03;;;;;;;;;;4995384;28;99574;-76
2022/04/12 12:46:27;;;;;;;11.77;5.90;;;;;;;;;;4992432;28;100638;-76
2022/04/12 12:49:13;;;;;;;7.93;6.43;;;;;;;;;;4995313;28;98410;-76
2022/04/12 12:51:40;;;;;;;11.95;6.60;;;;;;;;;;4995679;28;99935;-76
2022/04/12 12:54:09;;;;;;;12.32;6.65;;;;;;;;;;4995542;28;99106;-76
2022/04/12 12:56:36;;;;;;;9.32;6.68;;;;;;;;;;4995291;28;98344;-75
2022/04/12 12:59:21;;;;;;;10.00;7.05;;;;;;;;;;4998398;28;100875;-77
2022/04/12 13:01:52;;;;;;;8.82;6.35;;;;;;;;;;4995299;28;98303;-76
2022/04/12 13:04:31;;;;;;;10.43;7.60;;;;;;;;;;4995258;28;99841;-76
2022/04/12 13:07:01;;;;;;;11.57;7.30;;;;;;;;;;4994431;28;100045;-76
2022/04/12 13:09:28;;;;;;;11.63;7.57;;;;;;;;;;4993816;28;98311;-77
2022/04/12 13:11:54;;;;;;;10.38;6.78;;;;;;;;;;4995390;28;98413;-76
2022/04/12 13:14:22;;;;;;;8.93;6.97;;;;;;;;;;4993556;28;100917;-76
2022/04/12 13:16:48;;;;;;;10.88;7.95;;;;;;;;;;4994915;28;98343;-76
2022/04/12 13:19:23;;;;;;;11.90;7.50;;;;;;;;;;4994943;28;99374;-76
2022/04/12 13:21:49;;;;;;;12.38;7.97;;;;;;;;;;4997511;28;100166;-76
2022/04/12 13:24:15;;;;;;;13.73;8.38;;;;;;;;;;4995034;28;99367;-76
2022/04/12 13:26:42;;;;;;;12.00;8.02;;;;;;;;;;4994462;28;99817;-73
2022/04/12 13:29:10;;;;;;;11.75;7.93;;;;;;;;;;4994523;28;98367;-73
2022/04/12 13:31:36;;;;;;;10.45;7.70;;;;;;;;;;4994455;28;99472;-76
2022/04/12 13:34:03;;;;;;;15.45;8.57;;;;;;;;;;4994474;28;99541;-75
2022/04/12 13:36:29;;;;;;;10.85;7.88;;;;;;;;;;4994853;28;98335;-76
2022/04/12 13:38:56;;;;;;;16.50;8.23;;;;;;;;;;4994138;28;99385;-74
2022/04/12 13:41:22;;;;;;;11.00;7.82;;;;;;;;;;4994157;28;99913;-72
2022/04/12 13:43:49;;;;;;;13.43;7.65;;;;;;;;;;4997845;28;98564;-73
2022/04/12 13:46:15;;;;;;;9.57;7.95;;;;;;;;;;4994081;28;100609;-73
2022/04/12 13:48:41;;;;;;;14.98;8.15;;;;;;;;;;4995036;28;97613;-74
2022/04/12 13:51:09;;;;;;;14.38;7.90;;;;;;;;;;4994097;28;98749;-73
2022/04/12 13:53:36;;;;;;;9.15;7.40;;;;;;;;;;4993610;28;99701;-74
2022/04/12 13:56:02;;;;;;;13.55;8.30;;;;;;;;;;4992955;28;99262;-75
2022/04/12 13:58:29;;;;;;;15.70;8.10;;;;;;;;;;4994430;28;99817;-75
2022/04/12 14:00:57;;;;;;;15.77;8.43;;;;;;;;;;4994056;28;100015;-78
2022/04/12 14:03:29;;;;;;;11.27;8.13;;;;;;;;;;4997586;28;98335;-78
2022/04/12 14:05:55;;;;;;;11.52;8.00;;;;;;;;;;4992879;28;99352;-80
2022/04/12 14:08:29;;;;;;;11.35;8.10;;;;;;;;;;4976364;28;98533;-79
2022/04/12 14:10:56;;;;;;;13.88;7.97;;;;;;;;;;4993176;28;100111;-79
2022/04/12 14:13:25;;;;;;;14.30;8.88;;;;;;;;;;4994199;28;100433;-77
2022/04/12 14:15:56;;;;;;;13.07;8.52;;;;;;;;;;4992989;28;98414;-78
2022/04/12 14:18:29;;;;;;;11.68;8.27;;;;;;;;;;4992814;28;101325;-78
2022/04/12 14:20:55;;;;;;;13.77;8.30;;;;;;;;;;4969460;28;103381;-79
2022/04/12 14:23:22;;;;;;;16.15;8.52;;;;;;;;;;4993532;28;99415;-78
2022/04/12 14:25:49;;;;;;;12.77;8.10;;;;;;;;;;4976907;28;101421;-79
2022/04/12 14:28:51;;;;;;;10.93;8.20;;;;;;;;;;4989718;28;98404;-78
2022/04/12 14:31:19;;;;;;;11.38;8.10;;;;;;;;;;4988350;28;102064;-78
2022/04/12 14:34:02;;;;;;;15.75;8.00;;;;;;;;;;4981778;28;99111;-78
2022/04/12 14:36:29;;;;;;;9.15;7.50;;;;;;;;;;4987395;28;98421;-79